Time;durP1;ratioP1;P1;durP2;ratioP2;P2;SDS_P1;SDS_P2;PMS_P1;PMS_P2;Temp;Humidity;BMP_temperature;BMP_pressure;BME280_temperature;BME280_humidity;BME280_pressure;Samples;Min_cycle;Max_cycle;Signal;HPM_P1;HPM_P2
2021/11/20 00:01:15;;;;;;;;;;;;;;;27.99;67.64;100678.28;5074342;28;68983;-35
2021/11/20 00:03:45;;;;;;;;;;;;;;;28.02;68.25;100681.41;5074191;27;65722;-35
2021/11/20 00:06:18;;;;;;;;;;;;;;;28.07;68.15;100686.19;5080923;27;69224;-35
2021/11/20 00:08:48;;;;;;;;;;;;;;;28.11;70.36;100681.19;5074041;27;67484;-35
2021/11/20 00:11:22;;;;;;;;;;;;;;;28.19;73.24;100689.09;5075069;27;70015;-35
2021/11/20 00:13:53;;;;;;;;;;;;;;;28.27;74.31;100691.59;5076231;28;65704;-35
2021/11/20 00:16:23;;;;;;;;;;;;;;;28.34;75.33;100691.59;5075792;27;70057;-35
2021/11/20 00:18:54;;;;;;;;;;;;;;;28.41;75.92;100695.94;5077042;27;65775;-35
2021/11/20 00:21:26;;;;;;;;;;;;;;;28.45;76.65;100699.94;5077486;27;70251;-35
2021/11/20 00:23:58;;;;;;;;;;;;;;;28.49;77.70;100703.84;5074072;27;66961;-36
2021/11/20 00:26:33;;;;;;;;;;;;;;;28.52;77.74;100700.72;5080341;27;70286;-36
2021/11/20 00:29:18;;;;;;;;;;;;;;;28.54;78.11;100703.25;5076172;27;66582;-36
2021/11/20 00:31:51;;;;;;;;;;;;;;;28.58;78.67;100709.03;5078969;27;70327;-38
2021/11/20 00:34:24;;;;;;;;;;;;;;;28.61;78.39;100703.22;5076744;27;65382;-37
2021/11/20 00:36:53;;;;;;;;;;;;;;;28.60;78.20;100712.38;5073124;27;69859;-36
2021/11/20 00:39:25;;;;;;;;;;;;;;;28.59;78.72;100718.81;5081262;27;66413;-37
2021/11/20 00:41:55;;;;;;;;;;;;;;;28.62;78.28;100715.69;5079336;27;69727;-37
2021/11/20 00:44:26;;;;;;;;;;;;;;;28.61;78.31;100717.56;5079495;27;66600;-38
2021/11/20 00:46:56;;;;;;;;;;;;;;;28.61;78.33;100724.81;5077469;27;70042;-38
2021/11/20 00:49:26;;;;;;;;;;;;;;;28.63;79.17;100733.53;5077449;27;66278;-37
2021/11/20 00:51:56;;;;;;;;;;;;;;;28.64;78.79;100740.59;5080764;27;69477;-39
2021/11/20 00:54:27;;;;;;;;;;;;;;;28.65;79.08;100747.66;5078815;27;67193;-38
2021/11/20 00:56:57;;;;;;;;;;;;;;;28.67;78.94;100751.00;5073363;27;70415;-38
2021/11/20 00:59:27;;;;;;;;;;;;;;;28.69;78.84;100755.13;5076933;27;66395;-38
2021/11/20 01:01:58;;;;;;;;;;;;;;;28.70;78.58;100761.38;5075315;27;70133;-39
2021/11/20 01:04:31;;;;;;;;;;;;;;;28.71;78.54;100763.00;5076351;27;65705;-37
2021/11/20 01:07:02;;;;;;;;;;;;;;;28.73;78.69;100760.94;5081274;27;70056;-38
2021/11/20 01:09:35;;;;;;;;;;;;;;;28.72;78.52;100764.66;5078636;27;66921;-38
2021/11/20 01:12:17;;;;;;;;;;;;;;;28.73;78.53;100771.75;5078189;27;69767;-36
2021/11/20 01:14:50;;;;;;;;;;;;;;;28.74;78.43;100768.00;5075252;27;66133;-37
2021/11/20 01:17:22;;;;;;;;;;;;;;;28.75;78.42;100775.03;5074266;27;70153;-38
2021/11/20 01:19:52;;;;;;;;;;;;;;;28.78;78.47;100771.94;5077447;27;66985;-38
2021/11/20 01:22:42;;;;;;;;;;;;;;;28.80;77.92;100777.13;5073210;27;70304;-37
2021/11/20 01:25:25;;;;;;;;;;;;;;;28.82;77.77;100781.28;5073572;27;66763;-37
2021/11/20 01:28:12;;;;;;;;;;;;;;;28.80;77.23;100782.53;5073482;27;69885;-37
2021/11/20 01:30:55;;;;;;;;;;;;;;;28.90;76.84;100799.97;5073813;27;67467;-37
2021/11/20 01:33:43;;;;;;;;;;;;;;;28.89;77.19;100795.63;5070706;27;70304;-38
2021/11/20 01:36:16;;;;;;;;;;;;;;;28.90;76.74;100797.28;5076124;27;65489;-37
2021/11/20 01:38:48;;;;;;;;;;;;;;;28.93;77.00;100815.75;5073953;27;70672;-41
2021/11/20 01:41:42;;;;;;;;;;;;;;;28.92;77.06;100819.50;5058606;27;65912;-42
2021/11/20 01:44:34;;;;;;;;;;;;;;;28.92;77.03;100822.19;5074606;27;69177;-42
2021/11/20 01:47:33;;;;;;;;;;;;;;;28.93;76.75;100825.72;5075488;27;66083;-39
2021/11/20 01:50:07;;;;;;;;;;;;;;;28.96;76.58;100814.50;5075614;28;70328;-39
2021/11/20 01:52:41;;;;;;;;;;;;;;;29.02;76.75;100819.06;5075353;27;66326;-39
2021/11/20 01:55:32;;;;;;;;;;;;;;;29.02;77.07;100816.38;5062394;28;70298;-40
2021/11/20 01:58:20;;;;;;;;;;;;;;;29.05;76.66;100817.84;5043631;28;66274;-40
2021/11/20 02:01:10;;;;;;;;;;;;;;;29.06;76.81;100811.41;5071735;27;69536;-41
2021/11/20 02:03:53;;;;;;;;;;;;;;;29.10;76.46;100810.78;5059459;28;66211;-39
2021/11/20 02:06:34;;;;;;;;;;;;;;;29.15;76.89;100818.25;5057548;28;69786;-38
2021/11/20 02:09:30;;;;;;;;;;;;;;;29.17;76.76;100816.19;5075465;27;65805;-40
2021/11/20 02:12:21;;;;;;;;;;;;;;;29.21;76.41;100822.81;5067906;27;70050;-37
2021/11/20 02:14:52;;;;;;;;;;;;;;;29.25;76.27;100824.03;5064686;27;66457;-37
2021/11/20 02:17:25;;;;;;;;;;;;;;;29.28;76.38;100818.25;5069329;27;70452;-37
2021/11/20 02:19:59;;;;;;;;;;;;;;;29.32;76.48;100824.88;5075499;27;65450;-37
2021/11/20 02:22:38;;;;;;;;;;;;;;;29.34;76.82;100830.91;5075616;27;70041;-37
2021/11/20 02:25:14;;;;;;;;;;;;;;;29.42;77.07;100834.41;5073232;27;65658;-38
2021/11/20 02:28:06;;;;;;;;;;;;;;;29.45;76.47;100833.97;5074370;27;70090;-38
2021/11/20 02:30:40;;;;;;;;;;;;;;;29.49;76.97;100825.25;5074179;27;65899;-37
2021/11/20 02:33:10;;;;;;;;;;;;;;;29.54;76.71;100824.63;5073462;27;70006;-38
2021/11/20 02:35:49;;;;;;;;;;;;;;;29.57;77.08;100827.72;5062388;28;66234;-37
2021/11/20 02:38:26;;;;;;;;;;;;;;;29.57;76.99;100826.88;5076088;27;69190;-37
2021/11/20 02:40:57;;;;;;;;;;;;;;;29.63;77.04;100820.66;5075813;27;67400;-37
2021/11/20 02:43:32;;;;;;;;;;;;;;;29.68;76.43;100823.56;5073092;27;70378;-37
2021/11/20 02:46:13;;;;;;;;;;;;;;;29.71;77.03;100817.72;5072984;28;65724;-37
2021/11/20 02:48:46;;;;;;;;;;;;;;;29.73;76.92;100815.63;5077246;27;70324;-37
2021/11/20 02:51:20;;;;;;;;;;;;;;;29.77;76.80;100819.56;5077300;27;66394;-38
2021/11/20 02:53:58;;;;;;;;;;;;;;;29.81;76.38;100822.66;5078866;27;70113;-38
2021/11/20 02:56:33;;;;;;;;;;;;;;;29.84;76.47;100828.50;5079045;27;66660;-37
2021/11/20 02:59:03;;;;;;;;;;;;;;;29.88;76.69;100828.06;5074609;27;69940;-37
2021/11/20 03:01:45;;;;;;;;;;;;;;;29.92;76.68;100831.97;5078165;27;65440;-38
2021/11/20 03:04:17;;;;;;;;;;;;;;;29.95;76.25;100836.94;5060366;27;70238;-37
2021/11/20 03:06:51;;;;;;;;;;;;;;;29.98;76.40;100836.53;5077050;27;66561;-37
2021/11/20 03:09:23;;;;;;;;;;;;;;;30.02;76.27;100840.47;5075623;27;69210;-37
2021/11/20 03:11:57;;;;;;;;;;;;;;;30.04;76.80;100832.97;5075372;27;65673;-36
2021/11/20 03:14:30;;;;;;;;;;;;;;;30.06;76.56;100830.84;5077428;27;69388;-37
2021/11/20 03:17:02;;;;;;;;;;;;;;;30.09;76.07;100838.56;5069088;27;66200;-37
2021/11/20 03:19:34;;;;;;;;;;;;;;;30.10;75.96;100834.00;5076931;27;70379;-36
2021/11/20 03:22:06;;;;;;;;;;;;;;;30.12;75.84;100830.03;5078504;27;67084;-35
2021/11/20 03:24:36;;;;;;;;;;;;;;;30.14;75.99;100827.09;5070168;27;69538;-42
2021/11/20 03:27:06;;;;;;;;;;;;;;;30.15;75.32;100821.47;5078542;27;66614;-37
2021/11/20 03:29:36;;;;;;;;;;;;;;;30.14;75.52;100811.66;5077451;27;69397;-37
2021/11/20 03:32:08;;;;;;;;;;;;;;;30.12;74.99;100807.56;5077741;27;66692;-37
2021/11/20 03:34:39;;;;;;;;;;;;;;;30.13;74.64;100804.63;5077758;27;70997;-40
2021/11/20 03:37:11;;;;;;;;;;;;;;;30.13;74.26;100810.03;5077968;27;65638;-37
2021/11/20 03:39:42;;;;;;;;;;;;;;;30.13;74.75;100801.09;5061708;27;69566;-37
2021/11/20 03:42:13;;;;;;;;;;;;;;;30.13;73.95;100793.78;5072317;27;66601;-37
2021/11/20 03:44:45;;;;;;;;;;;;;;;30.12;73.80;100800.25;5072918;27;70142;-36
2021/11/20 03:47:15;;;;;;;;;;;;;;;30.16;73.77;100797.94;5072259;27;66796;-37
2021/11/20 03:49:46;;;;;;;;;;;;;;;30.17;74.38;100786.06;5073358;27;69589;-38
2021/11/20 03:52:19;;;;;;;;;;;;;;;30.10;74.03;100769.06;5074578;27;66371;-37
2021/11/20 03:54:51;;;;;;;;;;;;;;;30.22;73.96;100780.88;5073213;27;70662;-37
2021/11/20 03:57:22;;;;;;;;;;;;;;;30.23;73.52;100780.66;5074905;27;66718;-37
2021/11/20 03:59:52;;;;;;;;;;;;;;;30.24;73.35;100763.38;5072646;27;69574;-36
2021/11/20 04:02:24;;;;;;;;;;;;;;;30.27;73.67;100757.50;5074212;27;66353;-36
2021/11/20 04:04:54;;;;;;;;;;;;;;;30.28;73.42;100753.78;5072140;27;68794;-36
2021/11/20 04:07:24;;;;;;;;;;;;;;;30.31;73.25;100752.50;5072433;27;66628;-36
2021/11/20 04:09:54;;;;;;;;;;;;;;;30.33;72.94;100749.56;5072903;27;69681;-36
2021/11/20 04:12:24;;;;;;;;;;;;;;;30.34;73.28;100743.09;5077506;27;66328;-36
2021/11/20 04:14:54;;;;;;;;;;;;;;;30.34;73.21;100740.41;5076111;27;70212;-36
2021/11/20 04:17:25;;;;;;;;;;;;;;;30.36;72.97;100739.13;5076758;27;66884;-35
2021/11/20 04:19:55;;;;;;;;;;;;;;;30.35;72.75;100732.06;5078236;27;69463;-36
2021/11/20 04:22:25;;;;;;;;;;;;;;;30.36;73.07;100716.66;5059418;27;66484;-37
2021/11/20 04:24:55;;;;;;;;;;;;;;;30.38;72.94;100717.28;5077614;27;70388;-37
2021/11/20 04:27:51;;;;;;;;;;;;;;;30.39;72.46;100711.63;5075060;27;65362;-36
2021/11/20 04:30:45;;;;;;;;;;;;;;;30.41;72.28;100703.28;5075610;27;70394;-37
2021/11/20 04:33:16;;;;;;;;;;;;;;;30.41;72.21;100700.59;5076595;27;67401;-37
2021/11/20 04:35:46;;;;;;;;;;;;;;;30.42;72.76;100691.41;5079497;27;70388;-35
2021/11/20 04:38:18;;;;;;;;;;;;;;;30.44;72.56;100686.63;5075927;27;66572;-37
2021/11/20 04:40:48;;;;;;;;;;;;;;;30.45;72.77;100688.25;5078548;27;70490;-37
2021/11/20 04:43:18;;;;;;;;;;;;;;;30.50;72.28;100683.00;5073730;27;66013;-37
2021/11/20 04:45:51;;;;;;;;;;;;;;;30.56;70.82;100675.88;5077025;27;70279;-38
2021/11/20 04:48:21;;;;;;;;;;;;;;;30.56;71.15;100674.00;5059603;28;65909;-39
2021/11/20 04:50:59;;;;;;;;;;;;;;;30.63;71.53;100677.47;5077548;27;70044;-38
2021/11/20 04:53:30;;;;;;;;;;;;;;;30.69;71.43;100668.44;5075341;27;66330;-37
2021/11/20 04:56:03;;;;;;;;;;;;;;;30.66;71.46;100659.97;5078293;27;70463;-38
2021/11/20 04:58:33;;;;;;;;;;;;;;;30.65;71.98;100655.59;5075822;27;66956;-37
2021/11/20 05:01:05;;;;;;;;;;;;;;;30.56;71.02;100652.34;5062283;27;69716;-37
2021/11/20 05:03:43;;;;;;;;;;;;;;;30.38;68.22;100638.78;5072770;27;66203;-38
2021/11/20 05:06:13;;;;;;;;;;;;;;;29.99;65.04;100619.13;5075946;27;69276;-38
2021/11/20 05:08:43;;;;;;;;;;;;;;;29.83;62.51;100623.19;5073962;27;66034;-38
2021/11/20 05:11:13;;;;;;;;;;;;;;;29.66;60.69;100619.38;5077067;27;70045;-37
2021/11/20 05:13:47;;;;;;;;;;;;;;;29.54;59.90;100616.50;5069709;27;65516;-37
2021/11/20 05:16:17;;;;;;;;;;;;;;;29.35;58.38;100604.75;5076362;27;69606;-38
2021/11/20 05:18:48;;;;;;;;;;;;;;;29.19;56.53;100600.69;5070448;27;66278;-38
2021/11/20 05:21:21;;;;;;;;;;;;;;;29.05;55.99;100591.00;5051230;28;69134;-38
2021/11/20 05:23:52;;;;;;;;;;;;;;;28.94;55.23;100585.19;5074078;27;66210;-37
2021/11/20 05:26:22;;;;;;;;;;;;;;;28.84;53.95;100579.44;5072716;27;69832;-38
2021/11/20 05:31:37;;;;;;;;;;;;;;;28.70;53.03;100570.56;5059285;28;69240;-37
2021/11/20 05:34:07;;;;;;;;;;;;;;;28.67;51.87;100567.47;5074350;27;66595;-36
2021/11/20 05:36:38;;;;;;;;;;;;;;;28.58;51.33;100555.22;5075649;27;69312;-37
2021/11/20 05:39:11;;;;;;;;;;;;;;;28.47;51.02;100541.38;5076877;27;65887;-38
2021/11/20 05:41:43;;;;;;;;;;;;;;;28.43;50.66;100532.03;5076267;27;69853;-37
2021/11/20 05:44:15;;;;;;;;;;;;;;;28.37;51.05;100524.75;5059338;28;66248;-38
2021/11/20 05:46:58;;;;;;;;;;;;;;;28.20;50.01;100491.19;5073641;27;69865;-37
2021/11/20 05:49:38;;;;;;;;;;;;;;;28.25;49.83;100499.44;5060848;27;66658;-39
2021/11/20 05:52:11;;;;;;;;;;;;;;;28.51;49.79;100494.00;5069216;27;69150;-39
2021/11/20 05:54:42;;;;;;;;;;;;;;;28.68;49.22;100494.34;5075827;27;67792;-39
2021/11/20 05:57:35;;;;;;;;;;;;;;;28.68;48.22;100467.38;5073531;27;71009;-38
2021/11/20 06:00:14;;;;;;;;;;;;;;;28.82;47.51;100473.53;5073865;27;66472;-38
2021/11/20 06:02:57;;;;;;;;;;;;;;;28.86;47.84;100482.88;5082215;27;70673;-38
2021/11/20 06:05:42;;;;;;;;;;;;;;;28.89;47.45;100474.31;5073833;27;66523;-39
2021/11/20 06:08:14;;;;;;;;;;;;;;;28.90;46.46;100459.78;5069218;28;69419;-38
2021/11/20 06:10:44;;;;;;;;;;;;;;;28.92;46.57;100467.66;5075802;27;66097;-38
2021/11/20 06:13:18;;;;;;;;;;;;;;;28.89;45.99;100458.13;5074188;27;70082;-38
2021/11/20 06:16:10;;;;;;;;;;;;;;;28.89;45.74;100468.94;5056221;28;66425;-38
2021/11/20 06:18:41;;;;;;;;;;;;;;;28.88;45.63;100469.94;5077087;27;69292;-38
2021/11/20 06:21:11;;;;;;;;;;;;;;;28.87;46.09;100471.00;5074193;27;67016;-38
2021/11/20 06:23:41;;;;;;;;;;;;;;;28.86;45.56;100472.06;5057386;28;69059;-38
2021/11/20 06:26:14;;;;;;;;;;;;;;;28.85;45.41;100472.25;5071744;27;66567;-38
2021/11/20 06:28:45;;;;;;;;;;;;;;;28.83;45.39;100475.16;5066101;28;69774;-42
2021/11/20 06:31:22;;;;;;;;;;;;;;;28.83;45.42;100458.97;5073659;27;66574;-41
2021/11/20 06:34:22;;;;;;;;;;;;;;;28.82;45.86;100454.63;5038910;27;69064;-38
2021/11/20 06:36:55;;;;;;;;;;;;;;;28.81;45.65;100449.47;5073214;27;65426;-40
2021/11/20 06:39:40;;;;;;;;;;;;;;;28.77;46.29;100438.25;5064257;27;70143;-37
2021/11/20 06:42:10;;;;;;;;;;;;;;;28.76;45.96;100444.69;5073638;27;66108;-38
2021/11/20 06:44:41;;;;;;;;;;;;;;;28.77;46.21;100449.03;5071587;27;69994;-39
2021/11/20 06:47:12;;;;;;;;;;;;;;;28.75;46.38;100432.22;5071966;27;65846;-38
2021/11/20 06:49:42;;;;;;;;;;;;;;;28.75;46.16;100434.94;5074322;27;70244;-38
2021/11/20 06:52:13;;;;;;;;;;;;;;;28.71;46.18;100450.75;5072645;27;66996;-39
2021/11/20 06:55:01;;;;;;;;;;;;;;;28.71;46.34;100444.53;5076014;27;70633;-37
2021/11/20 06:57:54;;;;;;;;;;;;;;;28.68;46.64;100455.75;5062598;27;65013;-39
2021/11/20 07:00:50;;;;;;;;;;;;;;;28.70;46.60;100456.38;5073882;27;68457;-39
2021/11/20 07:03:52;;;;;;;;;;;;;;;28.69;46.34;100457.38;5072463;27;65740;-40
2021/11/20 07:06:28;;;;;;;;;;;;;;;28.71;46.59;100464.22;5074079;27;70359;-39
2021/11/20 07:08:59;;;;;;;;;;;;;;;28.70;46.78;100456.38;5072847;27;65531;-39
2021/11/20 07:11:29;;;;;;;;;;;;;;;28.72;46.62;100463.22;5068163;27;69878;-39
2021/11/20 07:14:00;;;;;;;;;;;;;;;28.83;50.30;100463.53;5070088;27;65732;-38
2021/11/20 07:16:31;;;;;;;;;;;;;;;28.99;52.88;100457.63;5077471;27;70386;-37
2021/11/20 07:19:01;;;;;;;;;;;;;;;29.15;56.65;100448.22;5068537;27;67170;-37
2021/11/20 07:21:48;;;;;;;;;;;;;;;29.35;59.28;100456.16;5067358;27;69359;-37
2021/11/20 07:24:38;;;;;;;;;;;;;;;29.49;61.54;100451.47;5076805;27;65711;-37
2021/11/20 07:27:12;;;;;;;;;;;;;;;29.62;62.01;100454.06;5076979;27;63614;-38
2021/11/20 07:29:42;;;;;;;;;;;;;;;29.73;62.23;100452.56;5076615;27;66162;-37
2021/11/20 07:32:17;;;;;;;;;;;;;;;29.82;62.27;100464.72;5079513;27;70308;-37
2021/11/20 07:34:47;;;;;;;;;;;;;;;29.91;63.42;100465.25;5079185;27;66441;-37
2021/11/20 07:37:17;;;;;;;;;;;;;;;29.99;63.28;100473.09;5060405;28;71297;-37
2021/11/20 07:39:48;;;;;;;;;;;;;;;30.07;63.88;100475.50;5077511;27;66425;-38
2021/11/20 07:42:18;;;;;;;;;;;;;;;30.14;63.88;100481.63;5077586;27;69942;-37
2021/11/20 07:45:10;;;;;;;;;;;;;;;30.22;65.37;100494.09;5079260;27;66855;-37
2021/11/20 07:48:01;;;;;;;;;;;;;;;30.25;66.43;100489.03;5076186;27;70002;-38
2021/11/20 07:50:31;;;;;;;;;;;;;;;30.31;66.64;100486.47;5077725;27;67176;-38
2021/11/20 07:53:09;;;;;;;;;;;;;;;30.37;66.04;100480.16;5077195;27;70284;-37
2021/11/20 07:55:40;;;;;;;;;;;;;;;30.42;65.46;100473.06;5075883;27;65515;-37
2021/11/20 07:58:11;;;;;;;;;;;;;;;30.45;65.72;100477.16;5057824;28;68932;-40
2021/11/20 08:00:43;;;;;;;;;;;;;;;30.49;65.56;100484.59;5058681;27;66216;-38
2021/11/20 08:03:14;;;;;;;;;;;;;;;30.51;66.18;100484.38;5083236;27;69601;-37
2021/11/20 08:05:57;;;;;;;;;;;;;;;30.54;66.71;100481.22;5079200;27;66092;-37
2021/11/20 08:08:46;;;;;;;;;;;;;;;30.55;66.06;100479.34;5075550;27;69991;-37
2021/11/20 08:11:30;;;;;;;;;;;;;;;30.57;66.88;100483.47;5075781;27;65989;-37
2021/11/20 08:14:03;;;;;;;;;;;;;;;30.58;66.46;100487.00;5077871;27;69227;-39
2021/11/20 08:16:54;;;;;;;;;;;;;;;30.59;66.80;100505.75;5075233;27;66534;-38
2021/11/20 08:19:35;;;;;;;;;;;;;;;30.62;66.97;100520.66;5077125;27;70053;-37
2021/11/20 08:22:40;;;;;;;;;;;;;;;30.61;67.42;100525.25;5063423;27;65346;-38
2021/11/20 08:25:19;;;;;;;;;;;;;;;30.63;66.66;100516.94;5076012;27;70053;-37
2021/11/20 08:27:49;;;;;;;;;;;;;;;30.63;67.26;100496.09;5076623;27;65689;-36
2021/11/20 08:30:24;;;;;;;;;;;;;;;30.64;67.42;100477.97;5077112;27;69154;-37
2021/11/20 08:32:57;;;;;;;;;;;;;;;30.63;68.18;100462.78;5074648;27;66984;-38
2021/11/20 08:35:49;;;;;;;;;;;;;;;30.62;67.61;100450.28;5058698;27;70547;-36
2021/11/20 08:38:22;;;;;;;;;;;;;;;30.62;68.02;100443.00;5076408;27;65554;-36
2021/11/20 08:40:59;;;;;;;;;;;;;;;30.62;68.33;100459.25;5076451;27;69349;-36
2021/11/20 08:43:30;;;;;;;;;;;;;;;30.60;68.06;100490.31;5074245;27;66495;-38
2021/11/20 08:46:20;;;;;;;;;;;;;;;30.62;68.01;100526.94;5081017;27;69096;-38
2021/11/20 08:48:51;;;;;;;;;;;;;;;30.61;68.29;100552.34;5076338;27;66282;-37
2021/11/20 08:51:22;;;;;;;;;;;;;;;30.61;68.33;100575.88;5074817;28;69911;-37
2021/11/20 08:53:55;;;;;;;;;;;;;;;30.60;68.45;100553.41;5077304;27;66667;-37
2021/11/20 08:56:25;;;;;;;;;;;;;;;30.58;69.10;100549.25;5073785;27;70649;-37
2021/11/20 08:59:06;;;;;;;;;;;;;;;30.61;68.51;100546.09;5076962;27;66918;-37
2021/11/20 09:01:59;;;;;;;;;;;;;;;30.61;69.03;100546.09;5058009;28;69946;-37
2021/11/20 09:04:42;;;;;;;;;;;;;;;30.60;68.94;100545.28;5060229;28;65898;-38
2021/11/20 09:07:26;;;;;;;;;;;;;;;30.60;69.50;100537.16;5076400;27;68997;-36
2021/11/20 09:10:09;;;;;;;;;;;;;;;30.60;69.70;100534.44;5045998;28;66271;-42
2021/11/20 09:12:45;;;;;;;;;;;;;;;30.59;69.58;100543.63;5077083;27;70825;-41
2021/11/20 09:15:20;;;;;;;;;;;;;;;30.60;70.51;100556.09;5093683;27;66662;-42
2021/11/20 09:17:52;;;;;;;;;;;;;;;30.59;70.02;100554.47;5093470;27;70366;-42
2021/11/20 09:20:32;;;;;;;;;;;;;;;30.59;70.23;100553.59;5064060;28;66065;-42
2021/11/20 09:23:08;;;;;;;;;;;;;;;30.59;70.34;100556.31;5062249;27;69283;-42
2021/11/20 09:25:47;;;;;;;;;;;;;;;30.58;70.16;100557.38;5063406;28;66721;-41
2021/11/20 09:28:37;;;;;;;;;;;;;;;30.57;71.00;100555.75;5070561;27;69512;-43
2021/11/20 09:31:08;;;;;;;;;;;;;;;30.57;71.30;100567.38;5078996;27;65837;-41
2021/11/20 09:33:38;;;;;;;;;;;;;;;30.56;70.81;100571.13;5078498;27;70192;-40
2021/11/20 09:36:08;;;;;;;;;;;;;;;30.56;71.60;100587.38;5078667;27;66754;-42
2021/11/20 09:38:57;;;;;;;;;;;;;;;30.54;71.30;100589.50;5081725;27;70174;-40
2021/11/20 09:41:41;;;;;;;;;;;;;;;30.53;70.67;100593.25;5078359;27;66131;-40
2021/11/20 09:44:51;;;;;;;;;;;;;;;30.51;70.76;100600.78;5054229;28;70037;-42
2021/11/20 09:47:28;;;;;;;;;;;;;;;30.47;73.15;100604.97;5071796;27;66331;-43
2021/11/20 09:50:22;;;;;;;;;;;;;;;30.33;73.66;100608.88;5079892;27;69339;-42
2021/11/20 09:52:52;;;;;;;;;;;;;;;30.22;73.39;100608.53;5073892;27;66417;-43
2021/11/20 09:55:33;;;;;;;;;;;;;;;30.11;73.62;100601.13;5079320;27;70364;-43
2021/11/20 09:58:23;;;;;;;;;;;;;;;30.03;74.00;100598.69;5075771;27;66114;-44
2021/11/20 10:00:56;;;;;;;;;;;;;;;29.96;73.97;100597.94;5078285;27;70086;-43
2021/11/20 10:03:47;;;;;;;;;;;;;;;29.84;75.07;100595.13;5079320;27;66663;-43
2021/11/20 10:06:26;;;;;;;;;;;;;;;29.80;75.17;100588.47;5080410;27;70655;-43
2021/11/20 10:09:09;;;;;;;;;;;;;;;29.71;76.08;100601.44;5080382;27;67133;-43
2021/11/20 10:12:03;;;;;;;;;;;;;;;29.70;77.18;100605.22;5073096;27;70224;-43
2021/11/20 10:14:46;;;;;;;;;;;;;;;29.52;77.29;100602.38;5061201;27;66150;-43
2021/11/20 10:17:28;;;;;;;;;;;;;;;29.27;78.50;100611.25;5065921;28;70120;-43
2021/11/20 10:20:21;;;;;;;;;;;;;;;29.04;79.82;100608.25;5075891;27;65264;-47
2021/11/20 10:23:10;;;;;;;;;;;;;;;28.91;80.05;100618.00;5075344;27;71071;-41
2021/11/20 10:25:46;;;;;;;;;;;;;;;28.83;80.59;100615.53;5079573;27;66278;-42
2021/11/20 10:28:35;;;;;;;;;;;;;;;28.76;80.87;100620.16;5080155;27;70791;-42
2021/11/20 10:31:17;;;;;;;;;;;;;;;28.67;81.02;100629.53;5078845;27;65423;-41
2021/11/20 10:33:54;;;;;;;;;;;;;;;28.61;81.98;100622.25;5080629;27;69080;-41
2021/11/20 10:36:31;;;;;;;;;;;;;;;28.54;82.04;100621.47;5073393;27;66261;-42
2021/11/20 10:39:12;;;;;;;;;;;;;;;28.46;82.11;100631.41;5078349;27;70275;-41
2021/11/20 10:41:42;;;;;;;;;;;;;;;28.48;81.91;100632.06;5080222;27;65836;-41
2021/11/20 10:44:12;;;;;;;;;;;;;;;28.59;82.09;100625.19;5075700;27;70117;-41
2021/11/20 10:47:01;;;;;;;;;;;;;;;28.66;81.76;100630.56;5075160;27;66825;-41
2021/11/20 10:49:59;;;;;;;;;;;;;;;28.70;82.03;100631.81;5073825;27;69982;-41
2021/11/20 10:52:44;;;;;;;;;;;;;;;28.76;81.97;100635.53;5078339;27;67340;-41
2021/11/20 10:55:23;;;;;;;;;;;;;;;28.78;81.80;100636.97;5075228;27;70793;-41
2021/11/20 10:58:15;;;;;;;;;;;;;;;28.84;81.26;100627.19;5071586;27;66359;-42
2021/11/20 11:00:59;;;;;;;;;;;;;;;28.79;81.63;100635.94;5051686;28;69355;-42
2021/11/20 11:03:50;;;;;;;;;;;;;;;28.72;81.93;100648.59;5076606;27;64737;-45
2021/11/20 11:06:41;;;;;;;;;;;;;;;28.63;82.39;100648.00;5055794;28;69814;-42
2021/11/20 11:09:18;;;;;;;;;;;;;;;28.63;82.29;100641.78;5074602;27;65658;-41
2021/11/20 11:11:59;;;;;;;;;;;;;;;28.57;82.79;100637.22;5076510;27;70125;-42
2021/11/20 11:14:37;;;;;;;;;;;;;;;28.61;83.10;100643.84;5073426;27;65944;-40
2021/11/20 11:17:10;;;;;;;;;;;;;;;28.63;82.71;100641.78;5073392;27;69312;-41
2021/11/20 11:19:54;;;;;;;;;;;;;;;28.60;83.06;100658.41;5071939;27;65848;-42
2021/11/20 11:22:30;;;;;;;;;;;;;;;28.56;82.80;100667.97;5071821;27;70484;-42
2021/11/20 11:25:03;;;;;;;;;;;;;;;28.52;83.26;100670.22;5075936;27;65789;-42
2021/11/20 11:27:41;;;;;;;;;;;;;;;28.52;82.68;100683.72;5077985;27;69973;-41
2021/11/20 11:30:20;;;;;;;;;;;;;;;28.54;83.02;100680.81;5078127;27;66473;-41
2021/11/20 11:32:57;;;;;;;;;;;;;;;28.54;82.73;100680.81;5075188;27;70050;-42
2021/11/20 11:35:29;;;;;;;;;;;;;;;28.55;82.37;100682.47;5074599;27;65737;-41
2021/11/20 11:38:19;;;;;;;;;;;;;;;28.57;82.36;100696.59;5069766;27;70082;-42
2021/11/20 11:40:50;;;;;;;;;;;;;;;28.56;82.38;100689.56;5072409;27;66347;-42
2021/11/20 11:43:26;;;;;;;;;;;;;;;28.57;82.15;100685.81;5065963;27;70171;-42
2021/11/20 11:46:20;;;;;;;;;;;;;;;28.54;82.33;100688.91;5071369;27;65665;-39
2021/11/20 11:48:51;;;;;;;;;;;;;;;28.63;82.31;100695.75;5075403;27;69174;-38
2021/11/20 11:51:24;;;;;;;;;;;;;;;28.71;82.01;100693.66;5076259;27;66911;-39
2021/11/20 11:53:59;;;;;;;;;;;;;;;28.79;81.95;100698.00;5075666;27;69963;-39
2021/11/20 11:56:50;;;;;;;;;;;;;;;28.85;82.04;100697.16;5077208;27;66098;-39
2021/11/20 11:59:20;;;;;;;;;;;;;;;28.92;82.01;100698.00;5070698;27;70297;-39
2021/11/20 12:01:53;;;;;;;;;;;;;;;28.92;80.10;100702.56;5072871;27;66535;-40
2021/11/20 12:04:29;;;;;;;;;;;;;;;28.73;75.59;100715.06;5073651;27;69854;-39
2021/11/20 12:07:09;;;;;;;;;;;;;;;28.54;73.49;100718.59;5074113;27;66930;-38
2021/11/20 12:09:45;;;;;;;;;;;;;;;28.34;70.68;100719.41;5072867;27;70066;-39
2021/11/20 12:12:30;;;;;;;;;;;;;;;28.16;66.83;100711.06;5074861;27;66112;-39
2021/11/20 12:15:26;;;;;;;;;;;;;;;28.01;65.63;100713.97;5084640;27;69854;-38
2021/11/20 12:18:39;;;;;;;;;;;;;;;27.87;65.26;100723.91;5035540;27;66160;-40
2021/11/20 12:21:39;;;;;;;;;;;;;;;27.74;63.52;100730.03;5057436;27;69699;-38
2021/11/20 12:24:09;;;;;;;;;;;;;;;27.69;61.90;100726.28;5074265;28;66263;-40
2021/11/20 12:26:42;;;;;;;;;;;;;;;27.66;61.28;100732.09;5076565;27;70053;-39
2021/11/20 12:29:17;;;;;;;;;;;;;;;27.58;60.15;100728.56;5072359;27;65752;-38
2021/11/20 12:31:56;;;;;;;;;;;;;;;27.54;60.36;100735.38;5057764;27;70329;-39
2021/11/20 12:34:30;;;;;;;;;;;;;;;27.49;58.58;100737.00;5077817;27;66266;-39
2021/11/20 12:37:00;;;;;;;;;;;;;;;27.43;58.91;100744.03;5077983;27;71063;-38
2021/11/20 12:39:46;;;;;;;;;;;;;;;27.40;58.10;100755.19;5077507;27;66836;-39
2021/11/20 12:42:34;;;;;;;;;;;;;;;27.38;57.07;100755.38;5074867;27;69566;-40
2021/11/20 12:45:39;;;;;;;;;;;;;;;27.34;56.63;100767.59;5071867;27;65522;-39
2021/11/20 12:48:27;;;;;;;;;;;;;;;27.29;56.08;100770.06;5075437;27;69580;-39
2021/11/20 12:51:17;;;;;;;;;;;;;;;27.23;55.97;100776.25;5075046;27;65795;-39
2021/11/20 12:53:50;;;;;;;;;;;;;;;27.27;58.03;100774.81;5065691;27;70089;-41
2021/11/20 12:56:28;;;;;;;;;;;;;;;27.29;57.23;100774.63;5073560;27;65543;-40
2021/11/20 12:59:14;;;;;;;;;;;;;;;27.23;56.82;100791.56;5073036;27;69982;-40
2021/11/20 13:01:56;;;;;;;;;;;;;;;27.15;55.64;100795.22;5071332;27;66912;-40
2021/11/20 13:04:44;;;;;;;;;;;;;;;27.06;56.85;100789.16;5065857;27;70134;-37
2021/11/20 13:07:23;;;;;;;;;;;;;;;27.12;56.51;100804.50;5074357;27;66279;-39
2021/11/20 13:09:56;;;;;;;;;;;;;;;27.16;57.45;100808.53;5083272;27;69506;-38
2021/11/20 13:12:46;;;;;;;;;;;;;;;27.30;56.52;100817.53;5077781;27;65599;-37
2021/11/20 13:15:28;;;;;;;;;;;;;;;27.38;56.26;100820.03;5077087;27;70513;-37
2021/11/20 13:18:18;;;;;;;;;;;;;;;27.38;55.41;100821.91;5077326;27;66733;-38
2021/11/20 13:20:57;;;;;;;;;;;;;;;27.45;54.83;100830.03;5078602;27;69544;-37
2021/11/20 13:23:30;;;;;;;;;;;;;;;27.44;53.87;100831.88;5076550;27;65638;-37
2021/11/20 13:26:00;;;;;;;;;;;;;;;27.45;53.37;100833.56;5079414;27;69972;-38
2021/11/20 13:28:33;;;;;;;;;;;;;;;27.43;53.20;100832.09;5078283;27;65424;-38
2021/11/20 13:31:04;;;;;;;;;;;;;;;27.40;52.94;100836.84;5078346;27;68943;-38